createdAt,value
2018-10-02T00:00:38.390Z,10.00
2018-10-02T00:03:41.934Z,10.10
2018-10-02T00:06:44.908Z,10.10
2018-10-02T00:09:47.826Z,10.10
2018-10-02T00:12:56.454Z,10.10
2018-10-02T00:15:59.393Z,9.90
2018-10-02T00:19:03.073Z,9.80
2018-10-02T00:22:06.145Z,9.80
2018-10-02T00:25:09.922Z,9.80
2018-10-02T00:28:12.862Z,9.70
2018-10-02T00:31:16.569Z,9.80
2018-10-02T00:34:21.203Z,9.80
2018-10-02T00:37:24.191Z,9.70
2018-10-02T00:40:27.061Z,9.80
2018-10-02T00:43:30.482Z,9.80
2018-10-02T00:46:33.516Z,9.80
2018-10-02T00:49:36.393Z,9.70
2018-10-02T00:52:39.371Z,9.70
2018-10-02T00:55:42.332Z,9.80
2018-10-02T00:58:45.182Z,10.30
2018-10-02T01:01:48.132Z,9.90
2018-10-02T01:04:51.020Z,9.90
2018-10-02T01:07:54.737Z,9.90
2018-10-02T01:10:58.255Z,10.00
2018-10-02T01:14:01.197Z,9.90
2018-10-02T01:17:04.145Z,9.80
2018-10-02T01:20:07.836Z,9.70
2018-10-02T01:23:10.788Z,9.80
2018-10-02T01:26:13.719Z,9.80
2018-10-02T01:29:16.645Z,9.80
2018-10-02T01:32:19.509Z,9.70
2018-10-02T01:35:22.413Z,9.80
2018-10-02T01:38:25.325Z,9.80
2018-10-02T01:41:28.300Z,9.90
2018-10-02T01:44:31.183Z,9.80
2018-10-02T01:47:34.801Z,9.80
2018-10-02T01:50:37.728Z,10.10
2018-10-02T01:53:40.700Z,9.70
2018-10-02T01:56:43.589Z,9.50
2018-10-02T01:59:46.472Z,9.60
2018-10-02T02:02:49.381Z,9.60
2018-10-02T02:05:52.292Z,9.70
2018-10-02T02:08:55.847Z,9.80
2018-10-02T02:11:58.816Z,9.80
2018-10-02T02:15:02.179Z,10.20
2018-10-02T02:18:05.676Z,9.80
2018-10-02T02:21:08.600Z,9.70
2018-10-02T02:24:11.495Z,9.70
2018-10-02T02:27:15.082Z,9.70
2018-10-02T02:30:18.057Z,9.80
2018-10-02T02:33:21.050Z,9.80
2018-10-02T02:36:23.978Z,9.80
2018-10-02T02:39:27.630Z,9.90
2018-10-02T02:42:30.629Z,9.90
2018-10-02T02:45:33.583Z,9.80
2018-10-02T02:48:42.639Z,9.80
2018-10-02T02:51:45.593Z,9.90
2018-10-02T02:54:48.564Z,9.80
2018-10-02T02:57:51.507Z,9.80
2018-10-02T03:00:54.460Z,9.70
2018-10-02T03:03:57.707Z,9.70
2018-10-02T03:07:00.648Z,9.50
2018-10-02T03:10:03.653Z,9.50
2018-10-02T03:13:06.616Z,10.00
2018-10-02T03:16:09.857Z,9.50
2018-10-02T03:19:13.096Z,9.40
2018-10-02T03:22:16.052Z,9.50
2018-10-02T03:25:19.055Z,9.60
2018-10-02T03:28:21.980Z,9.80
2018-10-02T03:31:25.439Z,9.80
2018-10-02T03:34:28.402Z,10.10
2018-10-02T03:37:32.129Z,9.80
2018-10-02T03:40:35.024Z,9.60
2018-10-02T03:43:38.776Z,9.50
2018-10-02T03:46:41.692Z,9.50
2018-10-02T03:49:45.417Z,9.50
2018-10-02T03:52:48.366Z,9.50
2018-10-02T03:55:52.062Z,9.50
2018-10-02T03:58:55.784Z,9.50
2018-10-02T04:01:58.680Z,9.50
2018-10-02T04:05:01.618Z,9.60
2018-10-02T04:08:04.531Z,9.60
2018-10-02T04:11:07.555Z,9.70
2018-10-02T04:14:10.497Z,9.70
2018-10-02T04:17:13.405Z,9.60
2018-10-02T04:20:16.921Z,9.60
2018-10-02T04:23:19.864Z,9.70
2018-10-02T04:26:22.764Z,9.60
2018-10-02T04:29:25.698Z,9.70
2018-10-02T04:32:29.395Z,9.60
2018-10-02T04:35:32.334Z,9.70
2018-10-02T04:38:35.241Z,9.70
2018-10-02T04:41:38.325Z,9.70
2018-10-02T04:44:41.872Z,10.10
2018-10-02T04:47:44.801Z,9.80
2018-10-02T04:50:47.784Z,9.70
2018-10-02T04:53:51.276Z,9.70
2018-10-02T04:56:54.811Z,9.70
2018-10-02T04:59:57.760Z,9.70
2018-10-02T05:03:00.739Z,9.60
2018-10-02T05:06:03.760Z,9.60
2018-10-02T05:09:08.117Z,9.60
2018-10-02T05:12:11.006Z,9.70
2018-10-02T05:15:13.915Z,9.70
2018-10-02T05:18:17.557Z,9.70
2018-10-02T05:21:20.518Z,9.70
2018-10-02T05:24:23.457Z,9.80
2018-10-02T05:27:26.412Z,9.80
2018-10-02T05:30:29.861Z,9.80
2018-10-02T05:33:32.855Z,9.70
2018-10-02T05:36:36.590Z,9.80
2018-10-02T05:39:39.828Z,9.80
2018-10-02T05:42:42.800Z,10.20
2018-10-02T05:45:46.567Z,9.90
2018-10-02T05:48:50.227Z,9.80
2018-10-02T05:51:53.128Z,9.80
2018-10-02T05:54:56.162Z,9.80
2018-10-02T05:57:59.901Z,9.80
2018-10-02T06:01:03.643Z,9.80
2018-10-02T06:04:06.633Z,9.70
2018-10-02T06:07:09.569Z,9.70
2018-10-02T06:10:12.523Z,9.70
2018-10-02T06:13:15.461Z,9.70
2018-10-02T06:16:18.565Z,9.80
2018-10-02T06:19:21.490Z,9.70
2018-10-02T06:22:24.421Z,9.70
2018-10-02T06:25:27.352Z,9.70
2018-10-02T06:28:30.889Z,9.60
2018-10-02T06:31:33.848Z,9.60
2018-10-02T06:34:36.728Z,10.10
2018-10-02T06:37:39.667Z,9.60
2018-10-02T06:40:42.609Z,9.70
2018-10-02T06:43:45.700Z,10.00
2018-10-02T06:46:48.514Z,10.00
2018-10-02T06:49:51.432Z,9.60
2018-10-02T06:52:54.325Z,9.70
2018-10-02T06:55:57.254Z,9.70
2018-10-02T06:59:00.150Z,9.70
2018-10-02T07:02:03.101Z,10.10
2018-10-02T07:05:06.072Z,9.70
2018-10-02T07:08:08.969Z,9.60
2018-10-02T07:11:12.023Z,9.80
2018-10-02T07:14:14.921Z,9.70
2018-10-02T07:17:17.955Z,9.60
2018-10-02T07:20:21.929Z,9.60
2018-10-02T07:23:24.806Z,9.60
2018-10-02T07:26:27.789Z,9.80
2018-10-02T07:29:30.724Z,9.70
2018-10-02T07:32:33.709Z,9.60
2018-10-02T07:35:36.580Z,11.80
2018-10-02T07:38:39.642Z,11.00
2018-10-02T07:41:42.593Z,10.50
2018-10-02T07:44:45.463Z,9.90
2018-10-02T07:47:48.431Z,9.80
2018-10-02T07:50:51.360Z,10.50
2018-10-02T07:53:54.291Z,10.20
2018-10-02T07:56:57.312Z,9.90
2018-10-02T08:00:00.182Z,9.80
2018-10-02T08:03:03.155Z,9.80
2018-10-02T08:06:06.307Z,9.80
2018-10-02T08:09:10.176Z,9.80
2018-10-02T08:12:13.259Z,9.70
2018-10-02T08:15:16.171Z,9.60
2018-10-02T08:18:19.086Z,9.60
2018-10-02T08:21:22.036Z,9.50
2018-10-02T08:24:24.940Z,9.50
2018-10-02T08:27:27.955Z,9.60
2018-10-02T08:30:30.791Z,9.50
2018-10-02T08:33:33.781Z,9.80
2018-10-02T08:36:36.777Z,9.40
2018-10-02T08:39:39.636Z,9.60
2018-10-02T08:42:42.521Z,9.70
2018-10-02T08:45:45.445Z,12.50
2018-10-02T08:48:48.736Z,12.10
2018-10-02T08:51:51.747Z,10.90
2018-10-02T08:54:54.688Z,10.10
2018-10-02T08:57:57.644Z,9.80
2018-10-02T09:01:00.673Z,9.70
2018-10-02T09:04:04.409Z,9.70
2018-10-02T09:07:07.576Z,9.70
2018-10-02T09:10:10.520Z,9.70
2018-10-02T09:13:13.477Z,9.70
2018-10-02T09:16:16.455Z,9.70
2018-10-02T09:19:19.425Z,9.70
2018-10-02T09:22:22.333Z,9.80
2018-10-02T09:25:25.254Z,9.80
2018-10-02T09:28:28.204Z,10.20
2018-10-02T09:31:36.665Z,9.70
2018-10-02T09:34:45.097Z,9.70
2018-10-02T09:37:53.574Z,9.80
2018-10-02T09:41:02.084Z,9.90
2018-10-02T09:44:05.213Z,9.90
2018-10-02T09:47:08.030Z,9.90
2018-10-02T09:50:10.921Z,9.90
2018-10-02T09:53:13.892Z,9.90
2018-10-02T09:56:16.832Z,10.00
2018-10-02T09:59:19.749Z,9.90
2018-10-02T10:02:28.396Z,9.90
2018-10-02T10:05:31.272Z,10.00
2018-10-02T10:08:34.312Z,9.90
2018-10-02T10:11:37.283Z,10.00
2018-10-02T10:14:40.216Z,10.10
2018-10-02T10:17:43.217Z,10.10
2018-10-02T10:20:46.184Z,10.20
2018-10-02T10:23:49.161Z,10.20
2018-10-02T10:26:52.095Z,10.30
2018-10-02T10:29:55.038Z,10.20
2018-10-02T10:32:57.968Z,10.10
2018-10-02T10:36:00.822Z,10.20
2018-10-02T10:39:05.947Z,10.20
2018-10-02T10:42:08.885Z,10.20
2018-10-02T10:45:11.833Z,10.20
2018-10-02T10:48:14.797Z,10.20
2018-10-02T10:51:17.968Z,10.20
2018-10-02T10:54:20.872Z,10.20
2018-10-02T10:57:23.778Z,10.10
2018-10-02T11:00:26.721Z,10.10
2018-10-02T11:03:29.664Z,10.20
2018-10-02T11:06:32.573Z,10.30
2018-10-02T11:09:35.512Z,10.30
2018-10-02T11:12:38.661Z,10.20
2018-10-02T11:15:41.607Z,10.30
2018-10-02T11:18:44.494Z,10.30
2018-10-02T11:21:47.430Z,10.20
2018-10-02T11:24:50.323Z,10.20
2018-10-02T11:27:53.300Z,10.20
2018-10-02T11:30:56.268Z,10.30
2018-10-02T11:33:59.153Z,10.40
2018-10-02T11:37:33.279Z,10.40
2018-10-02T11:40:36.189Z,10.40
2018-10-02T11:43:39.134Z,10.40
2018-10-02T11:46:42.099Z,10.30
2018-10-02T11:49:45.751Z,10.30
2018-10-02T11:52:49.166Z,10.40
2018-10-02T11:55:52.185Z,10.40
2018-10-02T11:58:55.073Z,10.40
2018-10-02T12:01:58.035Z,10.50
2018-10-02T12:05:00.921Z,10.50
2018-10-02T12:08:04.544Z,10.60
2018-10-02T12:11:08.155Z,10.50
2018-10-02T12:14:11.218Z,10.50
2018-10-02T12:17:14.068Z,10.60
2018-10-02T12:20:17.531Z,11.00
2018-10-02T12:23:20.497Z,10.70
2018-10-02T12:26:23.437Z,10.70
2018-10-02T12:29:26.332Z,10.80
2018-10-02T12:32:29.222Z,10.80
2018-10-02T12:35:32.160Z,10.80
2018-10-02T12:38:35.618Z,10.80
2018-10-02T12:41:39.266Z,10.90
2018-10-02T12:44:42.269Z,10.90
2018-10-02T12:47:45.205Z,10.90
2018-10-02T12:50:50.779Z,10.90
2018-10-02T12:53:54.006Z,10.90
2018-10-02T12:56:59.969Z,11.00
2018-10-02T13:00:03.346Z,11.00
2018-10-02T13:03:06.290Z,11.00
2018-10-02T13:06:09.238Z,11.00
2018-10-02T13:09:12.180Z,11.00
2018-10-02T13:12:15.091Z,11.00
2018-10-02T13:15:18.025Z,11.10
2018-10-02T13:18:21.037Z,11.20
2018-10-02T13:21:24.030Z,11.20
2018-10-02T13:24:27.545Z,11.20
2018-10-02T13:27:30.769Z,11.20
2018-10-02T13:30:34.197Z,11.20
2018-10-02T13:33:37.255Z,11.30
2018-10-02T13:36:40.488Z,11.30
2018-10-02T13:39:43.716Z,11.30
2018-10-02T13:42:46.703Z,11.30
2018-10-02T13:45:50.469Z,11.30
2018-10-02T13:48:53.848Z,11.30
2018-10-02T13:51:57.536Z,11.40
2018-10-02T13:55:00.633Z,11.40
2018-10-02T13:58:04.137Z,11.40
2018-10-02T14:01:07.502Z,11.40
2018-10-02T14:04:11.017Z,11.50
2018-10-02T14:07:14.336Z,11.60
2018-10-02T14:10:17.318Z,11.50
2018-10-02T14:13:20.564Z,11.60
2018-10-02T14:16:24.115Z,11.60
2018-10-02T14:19:27.708Z,11.70
2018-10-02T14:22:47.106Z,11.80
2018-10-02T14:25:50.066Z,11.70
2018-10-02T14:28:52.925Z,11.70
2018-10-02T14:31:55.933Z,11.70
2018-10-02T14:34:58.838Z,11.70
2018-10-02T14:38:01.929Z,11.70
2018-10-02T14:41:04.910Z,11.70
2018-10-02T14:44:07.883Z,11.80
2018-10-02T14:47:11.525Z,11.80
2018-10-02T14:50:14.477Z,11.90
2018-10-02T14:53:17.447Z,11.90
2018-10-02T14:56:20.454Z,11.90
2018-10-02T14:59:28.215Z,12.00
2018-10-02T15:02:31.142Z,12.10
2018-10-02T15:05:34.079Z,12.20
2018-10-02T15:08:37.030Z,12.20
2018-10-02T15:11:40.297Z,12.30
2018-10-02T15:14:43.235Z,12.40
2018-10-02T15:17:46.181Z,12.50
2018-10-02T15:20:49.168Z,12.50
2018-10-02T15:23:52.454Z,12.50
2018-10-02T15:26:55.548Z,12.50
2018-10-02T15:30:06.317Z,12.50
2018-10-02T15:33:09.185Z,12.50
2018-10-02T15:36:12.273Z,12.60
2018-10-02T15:39:15.162Z,12.60
2018-10-02T15:42:18.061Z,12.60
2018-10-02T15:45:20.988Z,12.60
2018-10-02T15:48:23.871Z,12.60
2018-10-02T15:51:26.825Z,12.60
2018-10-02T15:54:29.709Z,12.50
2018-10-02T15:57:32.614Z,12.60
2018-10-02T16:00:35.541Z,12.50
2018-10-02T16:03:38.569Z,12.50
2018-10-02T16:06:41.409Z,12.50
2018-10-02T16:09:44.394Z,12.60
2018-10-02T16:12:47.379Z,12.60
2018-10-02T16:15:50.353Z,12.60
2018-10-02T16:18:53.269Z,12.60
2018-10-02T16:21:56.245Z,12.60
2018-10-02T16:24:59.210Z,12.60
2018-10-02T16:28:02.078Z,12.70
2018-10-02T16:31:05.186Z,12.50
2018-10-02T16:34:08.172Z,12.50
2018-10-02T16:37:11.074Z,12.50
2018-10-02T16:40:13.997Z,12.50
2018-10-02T16:43:16.913Z,12.60
2018-10-02T16:46:19.834Z,12.60
2018-10-02T16:49:22.743Z,12.60
2018-10-02T16:52:25.710Z,12.60
2018-10-02T16:55:28.601Z,12.70
2018-10-02T16:58:31.543Z,12.60
2018-10-02T17:01:34.462Z,12.60
2018-10-02T17:04:37.420Z,12.60
2018-10-02T17:07:40.314Z,12.60
2018-10-02T17:10:43.262Z,12.60
2018-10-02T17:13:46.222Z,12.30
2018-10-02T17:16:49.129Z,12.60
2018-10-02T17:19:52.117Z,12.60
2018-10-02T17:22:55.018Z,12.60
2018-10-02T17:25:57.980Z,12.60
2018-10-02T17:29:00.951Z,12.60
2018-10-02T17:32:03.864Z,12.60
2018-10-02T17:35:06.926Z,12.60
2018-10-02T17:38:09.856Z,12.60
2018-10-02T17:41:12.756Z,12.60
2018-10-02T17:44:15.658Z,12.60
2018-10-02T17:47:18.581Z,12.60
2018-10-02T17:50:21.568Z,12.60
2018-10-02T17:53:24.545Z,12.50
2018-10-02T17:56:27.484Z,12.60
2018-10-02T17:59:30.403Z,12.80
2018-10-02T18:02:33.387Z,12.50
2018-10-02T18:05:37.998Z,12.60
2018-10-02T18:08:41.609Z,12.60
2018-10-02T18:11:44.756Z,12.60
2018-10-02T18:14:48.078Z,12.60
2018-10-02T18:17:51.417Z,12.60
2018-10-02T18:20:54.935Z,12.50
2018-10-02T18:23:58.418Z,12.60
2018-10-02T18:27:02.851Z,12.50
2018-10-02T18:30:06.338Z,12.60
2018-10-02T18:33:11.443Z,12.50
2018-10-02T18:36:15.846Z,12.50
2018-10-02T18:39:20.246Z,12.50
2018-10-02T18:42:23.638Z,12.50
2018-10-02T18:45:26.858Z,12.40
2018-10-02T18:48:30.558Z,12.40
2018-10-02T18:51:33.785Z,12.50
2018-10-02T18:54:36.861Z,12.40
2018-10-02T18:57:40.047Z,12.40
2018-10-02T19:00:44.538Z,12.40
2018-10-02T19:03:48.084Z,12.40
2018-10-02T19:06:53.693Z,12.40
2018-10-02T19:09:57.011Z,12.40
2018-10-02T19:13:00.030Z,12.40
2018-10-02T19:16:08.769Z,12.40
2018-10-02T19:19:17.689Z,12.40
2018-10-02T19:22:21.177Z,12.40
2018-10-02T19:25:30.342Z,12.30
2018-10-02T19:28:33.329Z,12.30
2018-10-02T19:31:41.993Z,12.30
2018-10-02T19:34:46.000Z,12.30
2018-10-02T19:37:54.565Z,12.30
2018-10-02T19:40:57.845Z,12.30
2018-10-02T19:44:01.981Z,12.30
2018-10-02T19:47:05.785Z,12.30
2018-10-02T19:50:08.981Z,12.30
2018-10-02T19:53:12.275Z,12.30
2018-10-02T19:56:15.241Z,12.30
2018-10-02T19:59:18.775Z,12.30
2018-10-02T20:02:22.055Z,12.30
2018-10-02T20:05:25.698Z,12.30
2018-10-02T20:08:29.133Z,12.40
2018-10-02T20:11:32.837Z,12.40
2018-10-02T20:14:36.590Z,12.40
2018-10-02T20:17:40.117Z,12.30
2018-10-02T20:20:43.996Z,12.40
2018-10-02T20:23:47.299Z,12.40
2018-10-02T20:26:50.835Z,12.40
2018-10-02T20:29:53.939Z,12.30
2018-10-02T20:32:56.920Z,12.30
2018-10-02T20:35:59.901Z,12.30
2018-10-02T20:39:04.465Z,12.30
2018-10-02T20:42:07.697Z,12.30
2018-10-02T20:45:10.923Z,12.40
2018-10-02T20:48:13.877Z,12.40
2018-10-02T20:51:16.951Z,12.40
2018-10-02T20:54:19.889Z,12.40
2018-10-02T20:57:22.881Z,12.40
2018-10-02T21:00:26.033Z,12.40
2018-10-02T21:03:29.746Z,12.40
2018-10-02T21:06:32.799Z,12.40
2018-10-02T21:09:36.077Z,12.40
2018-10-02T21:12:39.264Z,12.40
2018-10-02T21:15:42.493Z,12.60
2018-10-02T21:18:45.540Z,12.30
2018-10-02T21:21:48.558Z,12.50
2018-10-02T21:24:51.578Z,12.60
2018-10-02T21:27:55.231Z,12.50
2018-10-02T21:30:58.216Z,12.40
2018-10-02T21:34:01.107Z,12.30
2018-10-02T21:37:04.009Z,12.30
2018-10-02T21:40:06.988Z,12.30
2018-10-02T21:43:09.904Z,12.30
2018-10-02T21:46:13.714Z,12.40
2018-10-02T21:49:16.641Z,12.40
2018-10-02T21:52:19.557Z,12.40
2018-10-02T21:55:22.466Z,12.40
2018-10-02T21:58:25.533Z,12.40
2018-10-02T22:01:31.166Z,12.40
2018-10-02T22:04:34.149Z,12.40
2018-10-02T22:07:37.116Z,12.40
2018-10-02T22:10:40.033Z,12.30
2018-10-02T22:13:42.987Z,12.30
2018-10-02T22:16:45.973Z,12.30
2018-10-02T22:19:48.937Z,12.30
2018-10-02T22:22:52.085Z,12.40
2018-10-02T22:25:55.147Z,12.40
2018-10-02T22:28:58.127Z,12.40
2018-10-02T22:32:01.076Z,12.30
2018-10-02T22:35:04.169Z,12.30
2018-10-02T22:38:07.114Z,12.40
2018-10-02T22:41:10.083Z,12.40
2018-10-02T22:44:13.089Z,12.40
2018-10-02T22:47:16.005Z,12.30
2018-10-02T22:50:18.922Z,12.30
2018-10-02T22:53:21.977Z,12.40
2018-10-02T22:56:24.862Z,12.40
2018-10-02T22:59:28.074Z,12.40
2018-10-02T23:02:30.971Z,12.40
2018-10-02T23:05:33.990Z,12.40
2018-10-02T23:08:36.993Z,12.40
2018-10-02T23:11:39.982Z,12.40
2018-10-02T23:14:42.910Z,12.30
2018-10-02T23:17:45.823Z,12.30
2018-10-02T23:20:48.738Z,12.40
2018-10-02T23:23:51.606Z,12.40
2018-10-02T23:26:54.538Z,12.40
2018-10-02T23:29:57.519Z,12.40
2018-10-02T23:33:00.559Z,12.40
2018-10-02T23:36:03.513Z,12.40
2018-10-02T23:39:07.885Z,12.70
2018-10-02T23:42:10.816Z,12.40
2018-10-02T23:45:13.708Z,12.40
2018-10-02T23:48:16.641Z,12.40
2018-10-02T23:51:19.589Z,12.40
2018-10-02T23:54:22.506Z,12.40
2018-10-02T23:57:25.436Z,12.40
